createdAt,value
2018-12-17T00:02:15.577Z,46.17
2018-12-17T00:04:49.989Z,46.67
2018-12-17T00:07:25.063Z,48.43
2018-12-17T00:09:56.735Z,45.07
2018-12-17T00:12:28.124Z,50.27
2018-12-17T00:15:00.699Z,47.47
2018-12-17T00:17:32.695Z,46.90
2018-12-17T00:20:05.025Z,51.57
2018-12-17T00:22:36.956Z,49.70
2018-12-17T00:25:09.547Z,47.93
2018-12-17T00:27:42.299Z,49.73
2018-12-17T00:30:14.481Z,47.13
2018-12-17T00:32:47.260Z,47.67
2018-12-17T00:35:20.632Z,48.03
2018-12-17T00:37:58.116Z,45.57
2018-12-17T00:40:31.705Z,47.33
2018-12-17T00:43:04.429Z,47.97
2018-12-17T00:45:37.093Z,42.30
2018-12-17T00:48:08.542Z,42.77
2018-12-17T00:50:41.624Z,46.27
2018-12-17T00:53:14.566Z,42.57
2018-12-17T00:55:48.567Z,45.10
2018-12-17T00:58:21.845Z,52.27
2018-12-17T01:00:54.045Z,44.67
2018-12-17T01:03:25.788Z,45.93
2018-12-17T01:05:58.328Z,49.80
2018-12-17T01:08:32.168Z,45.57
2018-12-17T01:11:03.566Z,46.13
2018-12-17T01:13:37.259Z,45.67
2018-12-17T01:16:10.703Z,49.50
2018-12-17T01:18:42.830Z,49.93
2018-12-17T01:21:17.283Z,50.63
2018-12-17T01:23:51.224Z,48.30
2018-12-17T01:26:24.726Z,48.03
2018-12-17T01:28:56.585Z,50.30
2018-12-17T01:31:28.987Z,48.00
2018-12-17T01:34:03.037Z,51.17
2018-12-17T01:36:34.752Z,45.17
2018-12-17T01:39:07.609Z,47.13
2018-12-17T01:41:39.251Z,49.07
2018-12-17T01:44:12.900Z,44.63
2018-12-17T01:46:44.276Z,47.57
2018-12-17T01:49:17.734Z,45.87
2018-12-17T01:51:49.581Z,48.00
2018-12-17T01:54:22.034Z,43.03
2018-12-17T01:56:54.000Z,45.83
2018-12-17T01:59:25.129Z,47.57
2018-12-17T02:01:58.967Z,47.13
2018-12-17T02:04:32.116Z,46.70
2018-12-17T02:07:03.811Z,50.93
2018-12-17T02:09:35.666Z,48.87
2018-12-17T02:12:07.120Z,49.97
2018-12-17T02:14:38.914Z,45.13
2018-12-17T02:17:10.452Z,48.00
2018-12-17T02:19:44.305Z,47.63
2018-12-17T02:22:17.229Z,50.23
2018-12-17T02:24:50.997Z,46.07
2018-12-17T02:27:23.994Z,48.33
2018-12-17T02:29:57.931Z,50.67
2018-12-17T02:32:29.986Z,47.87
2018-12-17T02:35:03.996Z,48.40
2018-12-17T02:37:37.501Z,48.00
2018-12-17T02:40:11.326Z,50.40
2018-12-17T02:42:44.195Z,46.40
2018-12-17T02:45:16.408Z,49.87
2018-12-17T02:47:47.496Z,51.63
2018-12-17T02:50:18.986Z,48.00
2018-12-17T02:52:58.707Z,52.07
2018-12-17T02:55:30.344Z,50.80
2018-12-17T02:58:05.529Z,52.03
2018-12-17T03:00:37.669Z,47.80
2018-12-17T03:03:09.221Z,49.87
2018-12-17T03:05:41.516Z,51.60
2018-12-17T03:08:13.248Z,48.37
2018-12-17T03:10:45.889Z,45.57
2018-12-17T03:13:18.634Z,47.83
2018-12-17T03:15:50.900Z,51.00
2018-12-17T03:18:22.651Z,50.53
2018-12-17T03:20:54.498Z,48.30
2018-12-17T03:23:26.378Z,47.73
2018-12-17T03:25:58.101Z,50.93
2018-12-17T03:28:29.518Z,46.43
2018-12-17T03:31:01.192Z,52.73
2018-12-17T03:33:34.308Z,49.97
2018-12-17T03:36:08.066Z,50.37
2018-12-17T03:38:41.110Z,52.30
2018-12-17T03:41:12.930Z,49.37
2018-12-17T03:43:45.646Z,54.23
2018-12-17T03:46:20.268Z,49.47
2018-12-17T03:48:55.253Z,56.17
2018-12-17T03:51:28.398Z,52.07
2018-12-17T03:54:01.084Z,52.70
2018-12-17T03:56:37.601Z,60.57
2018-12-17T03:59:09.081Z,55.03
2018-12-17T04:01:40.528Z,55.40
2018-12-17T04:04:24.237Z,62.73
2018-12-17T04:07:01.846Z,54.63
2018-12-17T04:09:34.369Z,59.57
2018-12-17T04:12:05.936Z,63.57
2018-12-17T04:14:46.813Z,63.17
2018-12-17T04:17:18.405Z,62.50
2018-12-17T04:19:49.888Z,68.30
2018-12-17T04:22:24.182Z,73.90
2018-12-17T04:24:56.219Z,71.57
2018-12-17T04:27:27.988Z,70.43
2018-12-17T04:30:00.314Z,70.87
2018-12-17T04:32:31.939Z,71.43
2018-12-17T04:35:05.213Z,91.30
2018-12-17T04:37:37.010Z,107.10
2018-12-17T04:40:11.032Z,91.03
2018-12-17T04:42:43.127Z,84.80
2018-12-17T04:45:17.187Z,150.93
2018-12-17T04:47:49.844Z,110.93
2018-12-17T04:50:23.686Z,153.17
2018-12-17T04:52:59.089Z,130.77
2018-12-17T04:55:30.659Z,74.83
2018-12-17T04:58:05.384Z,97.13
2018-12-17T05:00:38.276Z,156.63
2018-12-17T05:03:09.778Z,129.07
2018-12-17T05:05:42.481Z,150.53
2018-12-17T05:08:14.506Z,121.50
2018-12-17T05:10:50.853Z,130.50
2018-12-17T05:13:24.492Z,124.37
2018-12-17T05:16:00.123Z,211.07
2018-12-17T05:18:33.588Z,102.50
2018-12-17T05:21:05.861Z,108.67
2018-12-17T05:23:37.033Z,125.10
2018-12-17T05:26:08.939Z,150.70
2018-12-17T05:28:49.365Z,91.73
2018-12-17T05:31:20.780Z,143.70
2018-12-17T05:33:54.120Z,112.73
2018-12-17T05:36:24.398Z,128.47
2018-12-17T05:38:56.507Z,134.70
2018-12-17T05:41:27.441Z,86.83
2018-12-17T05:43:58.150Z,108.53
2018-12-17T05:46:28.548Z,123.07
2018-12-17T05:48:59.456Z,151.40
2018-12-17T05:51:30.056Z,194.67
2018-12-17T05:54:04.565Z,172.80
2018-12-17T05:56:35.645Z,108.07
2018-12-17T06:02:07.949Z,118.60
2018-12-17T06:04:38.949Z,194.70
2018-12-17T06:07:11.140Z,161.17
2018-12-17T06:09:41.660Z,130.10
2018-12-17T06:12:14.678Z,195.53
2018-12-17T06:14:45.065Z,129.33
2018-12-17T06:17:17.739Z,171.03
2018-12-17T06:19:49.916Z,155.43
2018-12-17T06:22:21.159Z,146.17
2018-12-17T06:24:53.335Z,86.90
2018-12-17T06:27:28.289Z,154.77
2018-12-17T06:30:00.165Z,150.53
2018-12-17T06:32:32.310Z,80.37
2018-12-17T06:35:04.826Z,116.40
2018-12-17T06:37:36.778Z,100.53
2018-12-17T06:40:10.360Z,97.07
2018-12-17T06:42:43.340Z,94.93
2018-12-17T06:45:14.243Z,125.87
2018-12-17T06:47:45.127Z,112.57
2018-12-17T06:50:15.322Z,168.00
2018-12-17T06:52:46.292Z,158.20
2018-12-17T06:55:16.547Z,95.47
2018-12-17T06:57:49.292Z,96.07
2018-12-17T07:00:20.251Z,99.37
2018-12-17T07:02:52.117Z,133.40
2018-12-17T07:05:22.727Z,106.53
2018-12-17T07:07:53.053Z,101.87
2018-12-17T07:10:23.671Z,109.37
2018-12-17T07:12:54.402Z,139.47
2018-12-17T07:15:25.220Z,107.07
2018-12-17T07:17:57.719Z,127.97
2018-12-17T07:20:28.243Z,109.00
2018-12-17T07:22:58.324Z,111.03
2018-12-17T07:25:30.018Z,110.83
2018-12-17T07:28:00.449Z,107.70
2018-12-17T07:30:31.905Z,116.93
2018-12-17T07:33:02.150Z,128.47
2018-12-17T07:35:32.777Z,133.83
2018-12-17T07:38:05.610Z,97.23
2018-12-17T07:40:37.904Z,111.77
2018-12-17T07:43:09.831Z,113.50
2018-12-17T07:45:42.159Z,143.07
2018-12-17T07:48:14.434Z,90.47
2018-12-17T07:50:45.496Z,157.63
2018-12-17T07:53:15.580Z,115.03
2018-12-17T07:55:45.713Z,153.53
2018-12-17T07:58:15.828Z,173.90
2018-12-17T08:00:47.064Z,154.73
2018-12-17T08:03:20.998Z,173.57
2018-12-17T08:05:54.207Z,173.00
2018-12-17T08:08:35.617Z,142.20
2018-12-17T08:11:08.817Z,140.03
2018-12-17T08:13:39.121Z,205.67
2018-12-17T08:16:09.526Z,174.67
2018-12-17T08:18:40.268Z,209.60
2018-12-17T08:21:12.823Z,201.83
2018-12-17T08:23:43.252Z,135.07
2018-12-17T08:26:14.560Z,117.13
2018-12-17T08:28:45.784Z,205.73
2018-12-17T08:31:18.589Z,229.40
2018-12-17T08:33:49.958Z,212.17
2018-12-17T08:36:21.712Z,199.27
2018-12-17T08:38:51.741Z,195.93
2018-12-17T08:41:23.922Z,159.20
2018-12-17T08:43:55.431Z,235.40
2018-12-17T08:46:25.659Z,278.47
2018-12-17T08:49:08.480Z,175.83
2018-12-17T08:51:48.852Z,199.90
2018-12-17T08:54:19.650Z,215.20
2018-12-17T08:56:50.744Z,140.37
2018-12-17T08:59:21.436Z,151.73
2018-12-17T09:01:51.548Z,190.73
2018-12-17T09:04:21.742Z,221.50
2018-12-17T09:06:51.931Z,251.57
2018-12-17T09:09:21.990Z,402.57
2018-12-17T09:11:52.385Z,372.27
2018-12-17T09:14:25.032Z,199.80
2018-12-17T09:16:55.223Z,294.77
2018-12-17T09:19:27.925Z,159.13
2018-12-17T09:21:59.242Z,339.20
2018-12-17T09:24:31.517Z,202.50
2018-12-17T09:27:01.942Z,267.43
2018-12-17T09:29:36.600Z,159.57
2018-12-17T09:32:08.279Z,197.83
2018-12-17T09:34:38.749Z,269.57
2018-12-17T09:37:08.906Z,204.53
2018-12-17T09:39:40.963Z,246.70
2018-12-17T09:42:11.955Z,246.53
2018-12-17T09:44:42.107Z,202.80
2018-12-17T09:47:15.385Z,292.83
2018-12-17T09:49:45.453Z,211.67
2018-12-17T09:52:15.559Z,221.40
2018-12-17T09:54:45.635Z,270.93
2018-12-17T09:57:15.668Z,255.47
2018-12-17T09:59:45.992Z,216.90
2018-12-17T10:02:16.045Z,318.90
2018-12-17T10:04:48.328Z,254.00
2018-12-17T10:07:18.671Z,145.30
2018-12-17T10:09:48.717Z,241.43
2018-12-17T10:12:21.091Z,203.77
2018-12-17T10:14:54.136Z,222.60
2018-12-17T10:17:24.203Z,272.50
2018-12-17T10:19:57.206Z,242.83
2018-12-17T10:22:29.909Z,188.83
2018-12-17T10:25:00.048Z,252.17
2018-12-17T10:27:30.099Z,229.53
2018-12-17T10:30:02.710Z,219.20
2018-12-17T10:32:32.761Z,294.80
2018-12-17T10:35:02.808Z,210.50
2018-12-17T10:37:32.875Z,225.33
2018-12-17T10:40:03.199Z,171.63
2018-12-17T10:42:33.245Z,142.37
2018-12-17T10:45:05.603Z,176.50
2018-12-17T10:47:35.656Z,215.20
2018-12-17T10:50:07.642Z,176.73
2018-12-17T10:52:37.747Z,152.00
2018-12-17T10:56:34.535Z,187.63
2018-12-17T10:59:04.667Z,233.33
2018-12-17T11:01:43.730Z,173.90
2018-12-17T11:04:24.592Z,166.90
2018-12-17T11:06:54.741Z,204.70
2018-12-17T11:09:27.111Z,188.17
2018-12-17T11:11:58.668Z,194.83
2018-12-17T11:14:28.776Z,213.00
2018-12-17T11:16:58.848Z,150.90
2018-12-17T11:19:29.051Z,151.17
2018-12-17T11:22:00.498Z,199.63
2018-12-17T11:24:31.663Z,198.60
2018-12-17T11:27:01.738Z,176.90
2018-12-17T11:29:33.880Z,178.60
2018-12-17T11:32:03.938Z,159.57
2018-12-17T11:34:36.567Z,157.90
2018-12-17T11:37:06.621Z,146.23
2018-12-17T11:39:37.843Z,160.63
2018-12-17T11:42:08.646Z,175.50
2018-12-17T11:44:38.802Z,149.73
2018-12-17T11:47:08.860Z,137.60
2018-12-17T11:49:39.085Z,152.60
2018-12-17T11:52:09.877Z,125.00
2018-12-17T11:54:40.144Z,145.47
2018-12-17T11:58:16.360Z,129.43
2018-12-17T12:01:18.025Z,133.60
2018-12-17T12:03:50.983Z,133.03
2018-12-17T12:06:21.069Z,122.83
2018-12-17T12:08:52.399Z,121.57
2018-12-17T12:11:22.631Z,104.20
2018-12-17T12:13:52.733Z,108.23
2018-12-17T12:16:22.831Z,115.73
2018-12-17T12:18:52.924Z,126.17
2018-12-17T12:21:23.017Z,114.83
2018-12-17T12:23:53.408Z,123.47
2018-12-17T12:26:25.449Z,97.53
2018-12-17T12:28:55.586Z,100.57
2018-12-17T12:31:25.648Z,114.60
2018-12-17T12:34:00.485Z,108.63
2018-12-17T12:36:30.788Z,112.00
2018-12-17T12:39:01.401Z,101.53
2018-12-17T12:41:33.622Z,101.63
2018-12-17T12:44:08.831Z,110.77
2018-12-17T12:46:36.591Z,98.63
2018-12-17T12:49:06.759Z,110.63
2018-12-17T12:51:39.250Z,93.40
2018-12-17T12:54:10.221Z,104.53
2018-12-17T12:56:43.010Z,94.17
2018-12-17T12:59:13.068Z,94.83
2018-12-17T13:01:44.689Z,91.60
2018-12-17T13:04:14.904Z,94.40
2018-12-17T13:06:45.737Z,89.73
2018-12-17T13:09:15.912Z,96.03
2018-12-17T13:11:46.058Z,103.50
2018-12-17T13:14:16.102Z,97.70
2018-12-17T13:16:46.493Z,93.83
2018-12-17T13:19:16.566Z,90.77
2018-12-17T13:21:53.258Z,72.27
2018-12-17T13:24:24.428Z,81.40
2018-12-17T13:26:55.411Z,93.03
2018-12-17T13:29:26.972Z,91.17
2018-12-17T13:31:57.482Z,91.07
2018-12-17T13:34:27.966Z,90.40
2018-12-17T13:36:59.089Z,98.53
2018-12-17T13:39:29.554Z,86.83
2018-12-17T13:42:01.598Z,79.93
2018-12-17T13:44:32.557Z,78.73
2018-12-17T13:47:03.063Z,90.10
2018-12-17T13:49:34.025Z,78.23
2018-12-17T13:52:12.053Z,91.77
2018-12-17T13:54:44.895Z,79.47
2018-12-17T13:57:16.036Z,96.83
2018-12-17T13:59:46.630Z,79.80
2018-12-17T14:02:22.566Z,85.93
2018-12-17T14:04:54.536Z,85.93
2018-12-17T14:07:25.019Z,86.43
2018-12-17T14:10:00.056Z,83.63
2018-12-17T14:12:30.165Z,75.97
2018-12-17T14:15:01.084Z,88.00
2018-12-17T14:17:36.361Z,92.70
2018-12-17T14:20:16.207Z,80.37
2018-12-17T14:22:49.072Z,77.23
2018-12-17T14:25:20.383Z,74.73
2018-12-17T14:27:54.002Z,86.53
2018-12-17T14:30:24.976Z,93.60
2018-12-17T14:32:55.964Z,84.00
2018-12-17T14:35:26.784Z,85.30
2018-12-17T14:38:03.260Z,88.37
2018-12-17T14:40:36.431Z,88.30
2018-12-17T14:43:07.015Z,92.27
2018-12-17T14:45:37.488Z,87.47
2018-12-17T14:48:13.458Z,83.30
2018-12-17T14:50:45.369Z,76.33
2018-12-17T14:53:15.775Z,85.90
2018-12-17T14:55:48.337Z,84.90
2018-12-17T14:58:21.632Z,71.03
2018-12-17T15:00:55.717Z,81.97
2018-12-17T15:03:27.076Z,80.37
2018-12-17T15:05:59.000Z,82.60
2018-12-17T15:08:29.528Z,85.50
2018-12-17T15:10:59.851Z,76.27
2018-12-17T15:13:31.382Z,66.33
2018-12-17T15:16:01.873Z,67.10
2018-12-17T15:18:32.610Z,68.83
2018-12-17T15:21:03.143Z,72.93
2018-12-17T15:23:34.317Z,67.93
2018-12-17T15:26:05.007Z,65.60
2018-12-17T15:28:36.226Z,70.40
2018-12-17T15:31:07.797Z,72.70
2018-12-17T15:33:38.668Z,71.30
2018-12-17T15:36:09.996Z,64.20
2018-12-17T15:38:40.459Z,62.43
2018-12-17T15:41:10.899Z,63.50
2018-12-17T15:43:42.179Z,67.37
2018-12-17T15:46:13.493Z,67.30
2018-12-17T15:48:43.590Z,73.43
2018-12-17T15:51:15.862Z,70.60
2018-12-17T15:53:46.155Z,70.97
2018-12-17T15:56:16.272Z,63.70
2018-12-17T15:58:50.126Z,63.37
2018-12-17T16:01:20.337Z,67.87
2018-12-17T16:03:50.516Z,68.60
2018-12-17T16:06:20.711Z,64.90
2018-12-17T16:08:51.288Z,66.97
2018-12-17T16:11:21.719Z,62.87
2018-12-17T16:13:52.055Z,68.77
2018-12-17T16:16:22.345Z,65.50
2018-12-17T16:18:52.463Z,58.47
2018-12-17T16:21:22.640Z,63.37
2018-12-17T16:23:52.824Z,68.77
2018-12-17T16:26:22.911Z,68.97
2018-12-17T16:28:56.142Z,68.50
2018-12-17T16:31:29.014Z,70.30
2018-12-17T16:33:59.179Z,67.93
2018-12-17T16:37:35.351Z,68.70
2018-12-17T16:40:08.317Z,62.83
2018-12-17T16:42:40.273Z,65.90
2018-12-17T16:45:14.413Z,55.17
2018-12-17T16:47:45.878Z,64.33
2018-12-17T16:50:22.236Z,71.30
2018-12-17T16:52:52.293Z,68.47
2018-12-17T16:55:23.322Z,63.43
2018-12-17T16:57:53.522Z,64.50
2018-12-17T17:00:25.054Z,66.20
2018-12-17T17:02:56.497Z,69.13
2018-12-17T17:05:26.710Z,64.30
2018-12-17T17:08:01.607Z,57.57
2018-12-17T17:10:31.754Z,65.70
2018-12-17T17:13:03.551Z,70.07
2018-12-17T17:15:35.516Z,68.63
2018-12-17T17:18:05.993Z,74.00
2018-12-17T17:20:36.084Z,76.97
2018-12-17T17:23:07.715Z,75.47
2018-12-17T17:25:37.808Z,71.53
2018-12-17T17:28:07.987Z,83.90
2018-12-17T17:30:38.140Z,76.53
2018-12-17T17:33:08.440Z,76.37
2018-12-17T17:35:38.556Z,82.67
2018-12-17T17:38:08.606Z,81.37
2018-12-17T17:40:39.553Z,68.03
2018-12-17T17:43:09.748Z,67.10
2018-12-17T17:45:39.827Z,63.40
2018-12-17T17:48:09.951Z,71.33
2018-12-17T17:50:40.797Z,69.80
2018-12-17T17:53:10.884Z,67.83
2018-12-17T17:55:41.144Z,70.87
2018-12-17T17:58:14.089Z,69.97
2018-12-17T18:00:48.551Z,79.47
2018-12-17T18:03:18.659Z,72.63
2018-12-17T18:05:48.736Z,75.33
2018-12-17T18:08:21.653Z,58.30
2018-12-17T18:10:52.718Z,70.83
2018-12-17T18:13:23.396Z,69.20
2018-12-17T18:15:53.829Z,78.50
2018-12-17T18:18:24.703Z,76.70
2018-12-17T18:20:55.858Z,71.13
2018-12-17T18:23:26.952Z,56.77
2018-12-17T18:25:57.258Z,74.00
2018-12-17T18:28:28.260Z,79.33
2018-12-17T18:30:58.748Z,76.27
2018-12-17T18:33:28.879Z,69.53
2018-12-17T18:36:02.978Z,76.57
2018-12-17T18:38:34.816Z,71.93
2018-12-17T18:41:06.564Z,80.63
2018-12-17T18:43:37.882Z,77.07
2018-12-17T18:46:08.278Z,90.10
2018-12-17T18:48:40.145Z,68.13
2018-12-17T18:51:12.198Z,71.63
2018-12-17T18:53:42.735Z,71.93
2018-12-17T18:56:12.843Z,75.37
2018-12-17T18:58:44.833Z,92.30
2018-12-17T19:01:15.835Z,72.80
2018-12-17T19:03:45.962Z,69.13
2018-12-17T19:06:17.686Z,75.80
2018-12-17T19:08:47.794Z,84.47
2018-12-17T19:11:19.308Z,75.40
2018-12-17T19:13:49.565Z,71.23
2018-12-17T19:16:19.695Z,82.17
2018-12-17T19:18:49.823Z,78.30
2018-12-17T19:21:20.016Z,77.40
2018-12-17T19:23:50.123Z,71.50
2018-12-17T19:26:21.923Z,76.77
2018-12-17T19:28:58.590Z,78.10
2018-12-17T19:31:34.532Z,68.63
2018-12-17T19:34:01.857Z,70.83
2018-12-17T19:36:32.056Z,79.30
2018-12-17T19:39:02.668Z,72.27
2018-12-17T19:41:33.367Z,66.57
2018-12-17T19:44:06.296Z,66.20
2018-12-17T19:46:37.444Z,73.00
2018-12-17T19:49:07.560Z,75.70
2018-12-17T19:51:39.981Z,72.80
2018-12-17T19:54:11.249Z,70.93
2018-12-17T19:56:42.173Z,81.43
2018-12-17T19:59:15.458Z,53.90
2018-12-17T20:01:49.862Z,81.17
2018-12-17T20:04:20.259Z,78.03
2018-12-17T20:06:50.412Z,83.87
2018-12-17T20:09:23.445Z,72.97
2018-12-17T20:11:56.002Z,76.30
2018-12-17T20:14:26.190Z,70.53
2018-12-17T20:16:57.280Z,77.57
2018-12-17T20:19:27.458Z,70.77
2018-12-17T20:21:57.540Z,62.40
2018-12-17T20:24:29.607Z,80.43
2018-12-17T20:27:01.008Z,72.93
2018-12-17T20:29:31.431Z,73.20
2018-12-17T20:32:02.335Z,68.27
2018-12-17T20:34:32.448Z,76.93
2018-12-17T20:37:04.766Z,60.33
2018-12-17T20:39:34.908Z,68.90
2018-12-17T20:42:05.295Z,68.53
2018-12-17T20:44:35.467Z,73.27
2018-12-17T20:47:05.684Z,72.00
2018-12-17T20:49:39.978Z,78.43
2018-12-17T20:52:14.097Z,79.00
2018-12-17T20:54:50.299Z,59.97
2018-12-17T20:57:24.182Z,71.77
2018-12-17T20:59:58.438Z,76.00
2018-12-17T21:02:33.125Z,70.67
2018-12-17T21:05:10.360Z,73.67
2018-12-17T21:07:44.500Z,66.47
2018-12-17T21:10:20.188Z,64.17
2018-12-17T21:12:55.782Z,79.40
2018-12-17T21:15:36.118Z,76.17
2018-12-17T21:18:14.955Z,88.37
2018-12-17T21:20:49.668Z,144.07
2018-12-17T21:23:23.292Z,88.37
2018-12-17T21:25:54.407Z,81.87
2018-12-17T21:28:29.868Z,68.97
2018-12-17T21:31:01.737Z,71.37
2018-12-17T21:33:34.744Z,53.97
2018-12-17T21:36:06.282Z,85.73
2018-12-17T21:38:36.358Z,62.23
2018-12-17T21:41:21.524Z,70.00
2018-12-17T21:43:54.806Z,66.47
2018-12-17T21:46:30.339Z,75.70
2018-12-17T21:49:01.178Z,76.27
2018-12-17T21:51:33.741Z,57.03
2018-12-17T21:54:05.487Z,79.97
2018-12-17T21:56:37.893Z,87.53
2018-12-17T21:59:09.030Z,64.30
2018-12-17T22:01:42.661Z,88.27
2018-12-17T22:04:18.082Z,54.43
2018-12-17T22:06:50.470Z,78.87
2018-12-17T22:09:23.266Z,69.47
2018-12-17T22:12:00.923Z,70.43
2018-12-17T22:14:38.088Z,51.43
2018-12-17T22:17:12.423Z,60.60
2018-12-17T22:19:53.117Z,66.80
2018-12-17T22:22:31.017Z,66.07
2018-12-17T22:25:03.950Z,70.33
2018-12-17T22:27:36.884Z,63.60
2018-12-17T22:30:11.644Z,62.77
2018-12-17T22:32:42.795Z,71.43
2018-12-17T22:35:14.894Z,80.23
2018-12-17T22:37:47.783Z,79.23
2018-12-17T22:40:20.678Z,64.37
2018-12-17T22:42:52.483Z,53.20
2018-12-17T22:45:24.164Z,62.10
2018-12-17T22:47:55.179Z,84.87
2018-12-17T22:50:26.756Z,83.17
2018-12-17T22:52:59.203Z,65.70
2018-12-17T22:55:30.327Z,64.77
2018-12-17T22:58:01.704Z,69.77
2018-12-17T23:00:38.526Z,79.80
2018-12-17T23:03:10.495Z,72.13
2018-12-17T23:05:41.628Z,48.53
2018-12-17T23:08:13.268Z,63.03
2018-12-17T23:11:00.313Z,48.57
2018-12-17T23:13:47.621Z,70.73
2018-12-17T23:16:34.735Z,76.27
2018-12-17T23:19:04.653Z,75.37
2018-12-17T23:21:38.321Z,64.57
2018-12-17T23:24:10.113Z,87.40
2018-12-17T23:26:42.415Z,109.37
2018-12-17T23:29:17.835Z,103.07
2018-12-17T23:31:55.726Z,81.97
2018-12-17T23:34:26.938Z,116.27
2018-12-17T23:36:59.208Z,66.80
2018-12-17T23:39:33.118Z,53.67
2018-12-17T23:42:06.797Z,70.17
2018-12-17T23:44:39.548Z,65.53
2018-12-17T23:47:11.546Z,72.20
2018-12-17T23:49:43.861Z,70.43
2018-12-17T23:52:15.018Z,54.43
2018-12-17T23:54:47.038Z,66.13
2018-12-17T23:57:18.130Z,48.33
2018-12-17T23:59:51.650Z,53.30
